Time;durP1;ratioP1;P1;durP2;ratioP2;P2;SDS_P1;SDS_P2;PMS_P1;PMS_P2;Temp;Humidity;BMP_temperature;BMP_pressure;BME280_temperature;BME280_humidity;BME280_pressure;Samples;Min_cycle;Max_cycle;Signal;HPM_P1;HPM_P2
2021/08/29 00:00:11;;;;;;;;;;;;;;;23.73;47.70;99777.69;2058316;28;19918;-65
2021/08/29 00:01:12;;;;;;;;;;;;;;;23.74;47.78;99779.41;2058632;28;20339;-65
2021/08/29 00:02:12;;;;;;;;;;;;;;;23.74;47.77;99781.31;2060683;28;19917;-65
2021/08/29 00:03:12;;;;;;;;;;;;;;;23.73;47.86;99783.19;2056079;28;20526;-65
2021/08/29 00:04:13;;;;;;;;;;;;;;;23.73;47.97;99777.69;2057023;28;20643;-66
2021/08/29 00:05:13;;;;;;;;;;;;;;;23.74;47.79;99784.06;2059352;28;19965;-66
2021/08/29 00:06:13;;;;;;;;;;;;;;;23.73;47.82;99776.81;2054894;28;19928;-66
2021/08/29 00:07:14;;;;;;;;;;;;;;;23.73;47.88;99782.34;2057021;28;19921;-66
2021/08/29 00:08:14;;;;;;;;;;;;;;;23.73;47.83;99779.56;2066330;28;19964;-66
2021/08/29 00:09:14;;;;;;;;;;;;;;;23.73;47.82;99774.91;2074211;28;20100;-65
2021/08/29 00:10:14;;;;;;;;;;;;;;;23.73;47.92;99776.81;2058397;28;19918;-66
2021/08/29 00:11:15;;;;;;;;;;;;;;;23.74;47.81;99775.81;2057391;28;20761;-66
2021/08/29 00:12:15;;;;;;;;;;;;;;;23.72;47.85;99775.94;2055472;28;19961;-66
2021/08/29 00:13:15;;;;;;;;;;;;;;;23.74;47.86;99778.56;2060801;28;19920;-66
2021/08/29 00:14:16;;;;;;;;;;;;;;;23.71;47.79;99774.25;2061059;28;19999;-66
2021/08/29 00:15:16;;;;;;;;;;;;;;;23.72;47.72;99775.09;2053880;28;19917;-65
2021/08/29 00:16:16;;;;;;;;;;;;;;;23.72;47.70;99772.34;2061372;28;19928;-66
2021/08/29 00:17:17;;;;;;;;;;;;;;;23.72;47.79;99770.44;2066767;28;19917;-66
2021/08/29 00:18:17;;;;;;;;;;;;;;;23.72;47.80;99769.59;2067571;28;19952;-65
2021/08/29 00:19:17;;;;;;;;;;;;;;;23.73;47.67;99771.31;2059301;28;19924;-66
2021/08/29 00:20:17;;;;;;;;;;;;;;;23.73;47.81;99774.06;2055393;28;19918;-66
2021/08/29 00:21:18;;;;;;;;;;;;;;;23.72;47.83;99770.44;2058629;28;19996;-66
2021/08/29 00:22:18;;;;;;;;;;;;;;;23.72;47.83;99764.09;2060541;28;20387;-65
2021/08/29 00:23:18;;;;;;;;;;;;;;;23.71;47.80;99767.88;2066790;28;20028;-64
2021/08/29 00:24:19;;;;;;;;;;;;;;;23.72;47.68;99766.84;2067810;28;19952;-64
2021/08/29 00:25:19;;;;;;;;;;;;;;;23.71;47.57;99763.25;2055250;28;19983;-65
2021/08/29 00:26:19;;;;;;;;;;;;;;;23.72;47.52;99764.09;2058536;28;20402;-65
2021/08/29 00:27:20;;;;;;;;;;;;;;;23.70;47.70;99761.50;2061440;28;19964;-65
2021/08/29 00:28:20;;;;;;;;;;;;;;;23.71;47.59;99765.13;2056453;28;19933;-65
2021/08/29 00:29:20;;;;;;;;;;;;;;;23.71;47.70;99759.59;2062023;28;19992;-65
2021/08/29 00:30:21;;;;;;;;;;;;;;;23.70;47.71;99761.50;2055171;28;19917;-65
2021/08/29 00:31:21;;;;;;;;;;;;;;;23.71;47.61;99762.38;2067225;28;19963;-65
2021/08/29 00:32:21;;;;;;;;;;;;;;;23.71;47.53;99767.88;2067876;28;20561;-65
2021/08/29 00:33:22;;;;;;;;;;;;;;;23.71;47.37;99752.22;2060032;28;20056;-65
2021/08/29 00:34:22;;;;;;;;;;;;;;;23.71;47.57;99756.84;2056741;28;19922;-65
2021/08/29 00:35:22;;;;;;;;;;;;;;;23.70;47.62;99755.16;2054964;28;19917;-65
2021/08/29 00:36:22;;;;;;;;;;;;;;;23.70;47.56;99746.91;2057971;28;19921;-66
2021/08/29 00:37:23;;;;;;;;;;;;;;;23.71;47.46;99754.09;2057074;28;19944;-65
2021/08/29 00:38:23;;;;;;;;;;;;;;;23.70;47.56;99750.50;2060061;28;20277;-65
2021/08/29 00:39:24;;;;;;;;;;;;;;;23.69;47.51;99747.94;2059123;28;19917;-65
2021/08/29 00:40:25;;;;;;;;;;;;;;;23.70;47.60;99749.66;2059484;28;20063;-68
2021/08/29 00:41:26;;;;;;;;;;;;;;;23.70;47.54;99749.66;2054769;28;19969;-66
2021/08/29 00:42:26;;;;;;;;;;;;;;;23.69;47.64;99745.19;2056958;28;20415;-66
2021/08/29 00:43:27;;;;;;;;;;;;;;;23.70;47.41;99746.91;2060444;28;20328;-66
2021/08/29 00:44:27;;;;;;;;;;;;;;;23.70;47.60;99744.16;2057147;28;20591;-65
2021/08/29 00:45:27;;;;;;;;;;;;;;;23.70;47.66;99746.91;2058478;28;19924;-65
2021/08/29 00:46:28;;;;;;;;;;;;;;;23.70;47.58;99746.91;2060282;28;19972;-66
2021/08/29 00:47:30;;;;;;;;;;;;;;;23.70;47.61;99749.66;2058964;28;19917;-66
2021/08/29 00:48:30;;;;;;;;;;;;;;;23.69;47.55;99739.69;2056412;28;19921;-66
2021/08/29 00:49:31;;;;;;;;;;;;;;;23.70;47.51;99749.66;2055807;28;20114;-66
2021/08/29 00:50:31;;;;;;;;;;;;;;;23.69;47.60;99748.81;2059203;28;20030;-66
2021/08/29 00:51:34;;;;;;;;;;;;;;;23.69;47.62;99748.81;2059498;28;20179;-66
2021/08/29 00:52:41;;;;;;;;;;;;;;;23.68;47.58;99743.50;2058225;28;20015;-66
2021/08/29 00:53:48;;;;;;;;;;;;;;;23.69;47.56;99740.56;2055525;28;19979;-66
2021/08/29 00:54:48;;;;;;;;;;;;;;;23.68;47.61;99744.34;2056348;28;20535;-66
2021/08/29 00:55:49;;;;;;;;;;;;;;;23.69;47.40;99745.19;2058088;28;19921;-66
2021/08/29 00:56:49;;;;;;;;;;;;;;;23.69;47.54;99736.94;2058702;28;19924;-66
2021/08/29 00:57:49;;;;;;;;;;;;;;;23.68;47.57;99740.72;2058744;28;19956;-65
2021/08/29 00:58:54;;;;;;;;;;;;;;;23.68;47.50;99740.72;2058929;28;19926;-65
2021/08/29 00:59:55;;;;;;;;;;;;;;;23.69;47.36;99736.94;2056626;28;19913;-66
2021/08/29 01:00:55;;;;;;;;;;;;;;;23.69;47.35;99737.81;2055050;28;20857;-66
2021/08/29 01:02:00;;;;;;;;;;;;;;;23.68;47.54;99733.31;2058327;28;19921;-65
2021/08/29 01:03:01;;;;;;;;;;;;;;;23.69;47.39;99736.94;2054642;28;19953;-66
2021/08/29 01:04:03;;;;;;;;;;;;;;;23.69;47.41;99736.94;2056646;28;19917;-65
2021/08/29 01:05:06;;;;;;;;;;;;;;;23.69;47.31;99736.94;2058253;28;19949;-66
2021/08/29 01:06:06;;;;;;;;;;;;;;;23.68;47.41;99735.22;2059950;28;20004;-66
2021/08/29 01:07:08;;;;;;;;;;;;;;;23.68;47.39;99735.22;2055843;28;19922;-66
2021/08/29 01:08:11;;;;;;;;;;;;;;;23.69;47.44;99742.44;2055460;28;19918;-66
2021/08/29 01:09:13;;;;;;;;;;;;;;;23.68;47.25;99733.31;2052706;28;19921;-65
2021/08/29 01:10:15;;;;;;;;;;;;;;;23.68;47.44;99740.72;2059776;28;20487;-66
2021/08/29 01:11:18;;;;;;;;;;;;;;;23.68;47.33;99727.81;2056391;28;20115;-65
2021/08/29 01:12:21;;;;;;;;;;;;;;;23.69;47.40;99734.19;2052677;28;20009;-66
2021/08/29 01:13:30;;;;;;;;;;;;;;;23.67;47.51;99734.38;2055084;28;19976;-65
2021/08/29 01:14:31;;;;;;;;;;;;;;;23.68;47.47;99737.97;2055165;28;20696;-65
2021/08/29 01:15:32;;;;;;;;;;;;;;;23.67;47.54;99733.53;2059265;28;20755;-65
2021/08/29 01:16:33;;;;;;;;;;;;;;;23.67;47.25;99728.03;2056177;28;20959;-64
2021/08/29 01:17:35;;;;;;;;;;;;;;;23.67;47.35;99737.13;2053445;28;19982;-67
2021/08/29 01:18:38;;;;;;;;;;;;;;;23.67;47.48;99733.53;2060732;28;20282;-65
2021/08/29 01:19:44;;;;;;;;;;;;;;;23.66;47.44;99740.06;2055514;28;19972;-65
2021/08/29 01:21:00;;;;;;;;;;;;;;;23.67;47.38;99733.53;2054007;28;20063;-67
2021/08/29 01:22:01;;;;;;;;;;;;;;;23.67;47.45;99733.53;2055803;28;20077;-67
2021/08/29 01:23:02;;;;;;;;;;;;;;;23.67;47.35;99734.38;2060845;28;19917;-66
2021/08/29 01:24:04;;;;;;;;;;;;;;;23.66;47.42;99732.66;2059023;28;19925;-67
2021/08/29 01:25:06;;;;;;;;;;;;;;;23.67;47.17;99731.63;2053500;28;20325;-67
2021/08/29 01:26:27;;;;;;;;;;;;;;;23.67;47.26;99728.88;2054558;28;19972;-64
2021/08/29 01:27:32;;;;;;;;;;;;;;;23.66;47.34;99729.91;2056555;28;19921;-67
2021/08/29 01:28:45;;;;;;;;;;;;;;;23.66;47.29;99727.16;2054493;28;19928;-67
2021/08/29 01:29:47;;;;;;;;;;;;;;;23.67;47.25;99726.13;2057425;28;20815;-67
2021/08/29 01:30:47;;;;;;;;;;;;;;;23.67;47.51;99728.03;2056545;28;19967;-67
2021/08/29 01:31:48;;;;;;;;;;;;;;;23.67;47.16;99722.53;2060240;28;19925;-66
2021/08/29 01:32:48;;;;;;;;;;;;;;;23.67;47.27;99722.53;2067015;28;19956;-67
2021/08/29 01:33:50;;;;;;;;;;;;;;;23.67;47.17;99722.53;2058793;28;20358;-67
2021/08/29 01:34:50;;;;;;;;;;;;;;;23.67;47.47;99722.53;2058160;28;20365;-66
2021/08/29 01:35:52;;;;;;;;;;;;;;;23.66;47.27;99726.31;2057452;28;19940;-67
2021/08/29 01:36:53;;;;;;;;;;;;;;;23.68;47.39;99732.47;2058697;28;20414;-67
2021/08/29 01:37:54;;;;;;;;;;;;;;;23.66;47.08;99723.56;2059983;28;19917;-66
2021/08/29 01:38:55;;;;;;;;;;;;;;;23.66;47.21;99729.91;2057070;28;20376;-66
2021/08/29 01:39:55;;;;;;;;;;;;;;;23.66;47.23;99726.31;2060945;28;19919;-67
2021/08/29 01:40:56;;;;;;;;;;;;;;;23.65;47.27;99719.09;2059924;28;19932;-66
2021/08/29 01:41:56;;;;;;;;;;;;;;;23.65;47.36;99724.63;2056332;28;19964;-67
2021/08/29 01:42:58;;;;;;;;;;;;;;;23.65;47.21;99716.34;2075194;28;19971;-67
2021/08/29 01:43:59;;;;;;;;;;;;;;;23.66;47.08;99720.81;2071890;28;20464;-67
2021/08/29 01:44:59;;;;;;;;;;;;;;;23.65;47.34;99721.84;2071713;28;19913;-67
2021/08/29 01:46:00;;;;;;;;;;;;;;;23.66;47.13;99716.16;2074681;28;19968;-66
2021/08/29 01:47:00;;;;;;;;;;;;;;;23.65;47.14;99713.59;2056675;28;19910;-67
2021/08/29 01:48:01;;;;;;;;;;;;;;;23.65;47.04;99716.34;2060742;28;20077;-67
2021/08/29 01:49:02;;;;;;;;;;;;;;;23.65;47.14;99716.34;2058137;28;20597;-67
2021/08/29 01:50:03;;;;;;;;;;;;;;;23.65;47.28;99708.94;2055269;28;19960;-67
2021/08/29 01:51:03;;;;;;;;;;;;;;;23.65;47.37;99719.97;2061310;28;20313;-64
2021/08/29 01:52:04;;;;;;;;;;;;;;;23.65;47.21;99713.59;2058671;28;19932;-67
2021/08/29 01:53:04;;;;;;;;;;;;;;;23.65;47.15;99719.09;2060024;28;19956;-67
2021/08/29 01:54:04;;;;;;;;;;;;;;;23.65;47.14;99721.84;2058905;28;19954;-66
2021/08/29 01:55:05;;;;;;;;;;;;;;;23.65;47.12;99719.09;2058057;28;20175;-66
2021/08/29 01:56:06;;;;;;;;;;;;;;;23.65;47.27;99722.69;2059471;28;19956;-65
2021/08/29 01:57:13;;;;;;;;;;;;;;;23.65;47.38;99719.09;2056162;28;19925;-65
2021/08/29 01:58:14;;;;;;;;;;;;;;;23.65;47.28;99716.34;2052899;28;19918;-67
2021/08/29 01:59:14;;;;;;;;;;;;;;;23.63;47.15;99722.03;2060063;28;19914;-66
2021/08/29 02:00:14;;;;;;;;;;;;;;;23.64;47.07;99712.75;2056938;28;19921;-65
2021/08/29 02:01:15;;;;;;;;;;;;;;;23.64;47.17;99718.25;2057165;28;20767;-65
2021/08/29 02:02:16;;;;;;;;;;;;;;;23.64;47.06;99712.75;2055334;28;20574;-65
2021/08/29 02:03:16;;;;;;;;;;;;;;;23.66;47.28;99718.06;2061509;28;20404;-65
2021/08/29 02:04:17;;;;;;;;;;;;;;;23.64;47.15;99718.25;2059542;28;19910;-65
2021/08/29 02:05:17;;;;;;;;;;;;;;;23.64;47.11;99723.75;2055860;28;20294;-65
2021/08/29 02:06:23;;;;;;;;;;;;;;;23.63;47.28;99713.78;2058700;28;20800;-65
2021/08/29 02:07:29;;;;;;;;;;;;;;;23.64;47.12;99711.88;2067608;28;20011;-65
2021/08/29 02:08:29;;;;;;;;;;;;;;;23.63;47.14;99715.69;2064973;28;20455;-65
2021/08/29 02:09:32;;;;;;;;;;;;;;;23.63;47.20;99721.19;2066328;28;20323;-65
2021/08/29 02:10:32;;;;;;;;;;;;;;;23.63;46.99;99716.53;2066932;28;20018;-65
2021/08/29 02:11:34;;;;;;;;;;;;;;;23.62;46.94;99720.34;2060088;28;19964;-65
2021/08/29 02:12:37;;;;;;;;;;;;;;;23.64;46.90;99718.25;2055375;28;19918;-65
2021/08/29 02:13:40;;;;;;;;;;;;;;;23.63;47.14;99716.53;2053176;28;20133;-65
2021/08/29 02:14:45;;;;;;;;;;;;;;;23.64;46.99;99717.38;2056195;28;20292;-65
2021/08/29 02:15:51;;;;;;;;;;;;;;;23.63;47.12;99722.03;2064311;28;20035;-65
2021/08/29 02:16:52;;;;;;;;;;;;;;;23.64;47.12;99720.13;2058508;28;19921;-65
2021/08/29 02:17:53;;;;;;;;;;;;;;;23.63;47.24;99721.19;2065915;28;19917;-65
2021/08/29 02:18:55;;;;;;;;;;;;;;;23.64;47.08;99720.13;2066877;28;19964;-66
2021/08/29 02:19:56;;;;;;;;;;;;;;;23.63;47.08;99711.03;2055433;28;19926;-65
2021/08/29 02:20:56;;;;;;;;;;;;;;;23.63;47.05;99721.19;2053261;28;19933;-65
2021/08/29 02:21:57;;;;;;;;;;;;;;;23.63;46.98;99712.94;2058939;28;19929;-65
2021/08/29 02:22:57;;;;;;;;;;;;;;;23.64;46.97;99717.38;2055512;28;20331;-66
2021/08/29 02:23:59;;;;;;;;;;;;;;;23.63;47.15;99718.44;2056127;28;20314;-65
2021/08/29 02:25:01;;;;;;;;;;;;;;;23.62;47.09;99714.84;2058636;28;19922;-66
2021/08/29 02:26:02;;;;;;;;;;;;;;;23.62;46.92;99714.00;2056510;28;20366;-66
2021/08/29 02:27:03;;;;;;;;;;;;;;;23.62;47.09;99714.84;2062479;28;20689;-65
2021/08/29 02:28:03;;;;;;;;;;;;;;;23.63;47.22;99715.69;2061528;28;19925;-65
2021/08/29 02:29:03;;;;;;;;;;;;;;;23.62;47.14;99714.00;2069949;28;20011;-65
2021/08/29 02:30:05;;;;;;;;;;;;;;;23.62;47.00;99716.75;2069620;28;19929;-65
2021/08/29 02:31:05;;;;;;;;;;;;;;;23.62;46.91;99717.59;2058204;28;20163;-65
2021/08/29 02:32:08;;;;;;;;;;;;;;;23.61;47.12;99721.38;2071421;28;19956;-65
2021/08/29 02:33:11;;;;;;;;;;;;;;;23.62;46.95;99725.84;2073923;28;19927;-65
2021/08/29 02:34:11;;;;;;;;;;;;;;;23.62;46.84;99720.34;2054468;28;19929;-65
2021/08/29 02:35:12;;;;;;;;;;;;;;;23.62;47.14;99730.50;2059192;28;19945;-65
2021/08/29 02:36:14;;;;;;;;;;;;;;;23.61;47.01;99721.38;2054540;28;19921;-65
2021/08/29 02:37:15;;;;;;;;;;;;;;;23.62;46.98;99725.00;2055707;28;19922;-65
2021/08/29 02:38:17;;;;;;;;;;;;;;;23.60;47.22;99718.81;2055042;28;20036;-65
2021/08/29 02:39:18;;;;;;;;;;;;;;;23.60;47.01;99719.66;2055243;28;19956;-65
2021/08/29 02:40:20;;;;;;;;;;;;;;;23.62;47.09;99720.34;2057095;28;19913;-65
2021/08/29 02:41:20;;;;;;;;;;;;;;;23.61;47.18;99723.28;2059562;28;20122;-65
2021/08/29 02:42:21;;;;;;;;;;;;;;;23.61;47.24;99729.63;2056294;28;19925;-65
2021/08/29 02:43:23;;;;;;;;;;;;;;;23.61;47.10;99723.28;2057987;28;19914;-65
2021/08/29 02:44:24;;;;;;;;;;;;;;;23.60;47.21;99727.91;2058966;28;19927;-65
2021/08/29 02:45:26;;;;;;;;;;;;;;;23.61;46.88;99726.88;2054631;28;19921;-65
2021/08/29 02:46:26;;;;;;;;;;;;;;;23.61;46.86;99723.28;2056514;28;19991;-65
2021/08/29 02:47:28;;;;;;;;;;;;;;;23.60;47.07;99729.81;2056930;28;19981;-65
2021/08/29 02:48:29;;;;;;;;;;;;;;;23.59;47.16;99715.22;2057675;28;19925;-65
2021/08/29 02:49:30;;;;;;;;;;;;;;;23.59;47.08;99728.09;2055666;28;19956;-65
2021/08/29 02:50:31;;;;;;;;;;;;;;;23.59;47.16;99725.34;2056535;28;19917;-65
2021/08/29 02:51:31;;;;;;;;;;;;;;;23.59;47.01;99730.84;2053002;28;19964;-65
2021/08/29 02:52:31;;;;;;;;;;;;;;;23.60;46.95;99727.06;2054014;28;19946;-65
2021/08/29 02:53:32;;;;;;;;;;;;;;;23.59;46.96;99731.72;2057604;28;19920;-65
2021/08/29 02:54:39;;;;;;;;;;;;;;;23.61;46.79;99734.28;2056142;28;19921;-66
2021/08/29 02:55:40;;;;;;;;;;;;;;;23.59;46.80;99734.47;2058704;28;19922;-65
2021/08/29 02:56:42;;;;;;;;;;;;;;;23.59;46.82;99737.22;2053709;28;19917;-65
2021/08/29 02:57:45;;;;;;;;;;;;;;;23.60;46.79;99732.56;2058771;28;19918;-65
2021/08/29 02:58:46;;;;;;;;;;;;;;;23.61;46.85;99739.78;2059660;28;19906;-65
2021/08/29 02:59:46;;;;;;;;;;;;;;;23.59;46.80;99742.75;2053773;28;19999;-65
2021/08/29 03:00:47;;;;;;;;;;;;;;;23.59;46.88;99741.84;2060090;28;19949;-65
2021/08/29 03:01:47;;;;;;;;;;;;;;;23.59;46.82;99736.34;2056562;28;19928;-66
2021/08/29 03:02:47;;;;;;;;;;;;;;;23.59;46.99;99736.34;2053055;28;20455;-65
2021/08/29 03:03:48;;;;;;;;;;;;;;;23.58;46.98;99737.41;2060036;28;19994;-65
2021/08/29 03:04:48;;;;;;;;;;;;;;;23.59;46.90;99733.59;2055780;28;20654;-65
2021/08/29 03:05:49;;;;;;;;;;;;;;;23.59;46.75;99736.34;2056430;28;20319;-65
2021/08/29 03:06:49;;;;;;;;;;;;;;;23.58;46.65;99734.66;2059666;28;19913;-64
2021/08/29 03:07:49;;;;;;;;;;;;;;;23.58;46.81;99734.66;2058342;28;19922;-64
2021/08/29 03:08:50;;;;;;;;;;;;;;;23.58;46.55;99732.75;2056043;28;20379;-64
2021/08/29 03:09:50;;;;;;;;;;;;;;;23.58;46.72;99734.66;2069787;28;19938;-65
2021/08/29 03:10:51;;;;;;;;;;;;;;;23.59;46.61;99736.34;2074168;28;20449;-65
2021/08/29 03:11:51;;;;;;;;;;;;;;;23.58;46.79;99740.16;2058978;28;19952;-65
2021/08/29 03:12:52;;;;;;;;;;;;;;;23.57;46.79;99732.94;2057509;28;20123;-65
2021/08/29 03:13:53;;;;;;;;;;;;;;;23.57;46.83;99738.44;2059165;28;19976;-65
2021/08/29 03:14:53;;;;;;;;;;;;;;;23.54;46.82;99732.28;2054879;28;19925;-65
2021/08/29 03:15:54;;;;;;;;;;;;;;;23.57;46.83;99732.94;2057146;28;19922;-65
2021/08/29 03:16:54;;;;;;;;;;;;;;;23.57;46.65;99741.19;2059024;28;19989;-65
2021/08/29 03:17:55;;;;;;;;;;;;;;;23.56;46.72;99737.59;2056688;28;19922;-67
2021/08/29 03:18:55;;;;;;;;;;;;;;;23.56;46.79;99732.09;2058499;28;19973;-65
2021/08/29 03:19:56;;;;;;;;;;;;;;;23.56;46.73;99732.09;2059006;28;20581;-65
2021/08/29 03:20:57;;;;;;;;;;;;;;;23.58;46.58;99729.16;2059148;28;19925;-65
2021/08/29 03:21:57;;;;;;;;;;;;;;;23.57;46.57;99733.81;2068032;28;20408;-65
2021/08/29 03:22:57;;;;;;;;;;;;;;;23.57;46.71;99743.94;2068195;28;20535;-65
2021/08/29 03:23:58;;;;;;;;;;;;;;;23.57;46.60;99738.44;2055879;28;19925;-66
2021/08/29 03:24:58;;;;;;;;;;;;;;;23.56;46.75;99736.75;2058974;28;20550;-65
2021/08/29 03:25:59;;;;;;;;;;;;;;;23.57;46.72;99743.94;2059770;28;19926;-65
2021/08/29 03:26:59;;;;;;;;;;;;;;;23.56;46.52;99742.25;2057418;28;19965;-65
2021/08/29 03:27:59;;;;;;;;;;;;;;;23.57;46.35;99732.94;2058159;28;19918;-65
2021/08/29 03:29:00;;;;;;;;;;;;;;;23.57;46.67;99732.94;2059882;28;19917;-65
2021/08/29 03:30:00;;;;;;;;;;;;;;;23.56;46.44;99736.75;2056774;28;20021;-65
2021/08/29 03:31:01;;;;;;;;;;;;;;;23.54;46.83;99729.53;2054787;28;19926;-65
2021/08/29 03:32:01;;;;;;;;;;;;;;;23.54;46.63;99734.16;2058150;28;20324;-64
2021/08/29 03:33:01;;;;;;;;;;;;;;;23.54;46.82;99735.03;2063402;28;19913;-66
2021/08/29 03:34:04;;;;;;;;;;;;;;;23.53;46.70;99727.81;2062664;28;19926;-65
2021/08/29 03:35:05;;;;;;;;;;;;;;;23.54;46.61;99735.03;2052842;28;19922;-65
2021/08/29 03:36:06;;;;;;;;;;;;;;;23.53;46.51;99726.97;2059311;28;19921;-65
2021/08/29 03:37:07;;;;;;;;;;;;;;;23.53;46.75;99724.22;2055695;28;20483;-65
2021/08/29 03:38:07;;;;;;;;;;;;;;;23.53;46.82;99726.97;2057085;28;19925;-65
2021/08/29 03:39:08;;;;;;;;;;;;;;;23.54;46.61;99728.66;2058154;28;19922;-65
2021/08/29 03:40:09;;;;;;;;;;;;;;;23.54;46.69;99734.16;2059747;28;19925;-65
2021/08/29 03:41:09;;;;;;;;;;;;;;;23.56;46.57;99739.50;2057562;28;19925;-65
2021/08/29 03:42:10;;;;;;;;;;;;;;;23.54;46.76;99739.66;2059058;28;20195;-65
2021/08/29 03:43:13;;;;;;;;;;;;;;;23.53;46.55;99738.81;2054322;28;19918;-65
2021/08/29 03:44:14;;;;;;;;;;;;;;;23.53;46.65;99733.31;2056126;28;20016;-65
2021/08/29 03:45:14;;;;;;;;;;;;;;;23.54;46.59;99734.16;2055413;28;19914;-65
2021/08/29 03:46:15;;;;;;;;;;;;;;;23.54;46.60;99728.66;2054295;28;19929;-65
2021/08/29 03:47:16;;;;;;;;;;;;;;;23.52;46.80;99730.78;2057294;28;20004;-65
2021/08/29 03:48:16;;;;;;;;;;;;;;;23.53;46.43;99732.47;2072074;28;20243;-65
2021/08/29 03:49:16;;;;;;;;;;;;;;;23.53;46.31;99727.81;2071395;28;19921;-65
2021/08/29 03:50:17;;;;;;;;;;;;;;;23.53;46.45;99730.56;2058549;28;19925;-65
2021/08/29 03:51:18;;;;;;;;;;;;;;;23.53;46.58;99727.81;2054278;28;19918;-65
2021/08/29 03:52:19;;;;;;;;;;;;;;;23.52;46.58;99730.78;2060067;28;20028;-65
2021/08/29 03:53:20;;;;;;;;;;;;;;;23.52;46.52;99728.03;2057469;28;19928;-64
2021/08/29 03:54:20;;;;;;;;;;;;;;;23.53;46.54;99733.31;2055013;28;19961;-65
2021/08/29 03:55:21;;;;;;;;;;;;;;;23.54;46.45;99728.66;2058423;28;19924;-65
2021/08/29 03:56:21;;;;;;;;;;;;;;;23.52;46.55;99731.63;2057396;28;19922;-65
2021/08/29 03:57:22;;;;;;;;;;;;;;;23.52;46.44;99731.63;2067207;28;19956;-65
2021/08/29 03:58:23;;;;;;;;;;;;;;;23.52;46.40;99734.38;2067407;28;20454;-65
2021/08/29 03:59:23;;;;;;;;;;;;;;;23.51;46.45;99735.38;2059618;28;20499;-65
2021/08/29 04:00:24;;;;;;;;;;;;;;;23.52;46.43;99731.63;2057845;28;19921;-65
2021/08/29 04:01:24;;;;;;;;;;;;;;;23.51;46.59;99729.91;2055780;28;19941;-65
2021/08/29 04:02:25;;;;;;;;;;;;;;;23.52;46.67;99731.63;2059335;28;20746;-65
2021/08/29 04:03:25;;;;;;;;;;;;;;;23.52;46.58;99736.28;2058498;28;20348;-65
2021/08/29 04:04:27;;;;;;;;;;;;;;;23.52;46.39;99725.28;2057451;28;20217;-65
2021/08/29 04:05:27;;;;;;;;;;;;;;;23.52;46.50;99728.88;2059172;28;19913;-65
2021/08/29 04:06:28;;;;;;;;;;;;;;;23.51;46.37;99724.38;2057996;28;20599;-65
2021/08/29 04:07:29;;;;;;;;;;;;;;;23.51;46.48;99721.63;2055971;28;19936;-65
2021/08/29 04:08:41;;;;;;;;;;;;;;;23.51;46.38;99723.53;2058003;28;20068;-65
2021/08/29 04:09:42;;;;;;;;;;;;;;;23.52;46.38;99730.78;2057654;28;20058;-65
2021/08/29 04:10:43;;;;;;;;;;;;;;;23.51;46.41;99729.91;2060543;28;20046;-64
2021/08/29 04:11:46;;;;;;;;;;;;;;;23.50;46.61;99728.19;2058419;28;20332;-64
2021/08/29 04:12:48;;;;;;;;;;;;;;;23.50;46.63;99728.19;2059264;28;19928;-65
2021/08/29 04:13:48;;;;;;;;;;;;;;;23.51;46.37;99729.91;2059962;28;19929;-65
2021/08/29 04:14:49;;;;;;;;;;;;;;;23.51;46.54;99729.91;2055744;28;19929;-65
2021/08/29 04:15:50;;;;;;;;;;;;;;;23.51;46.49;99740.91;2075758;28;19920;-64
2021/08/29 04:16:51;;;;;;;;;;;;;;;23.50;46.29;99728.19;2070434;28;19921;-65
2021/08/29 04:17:52;;;;;;;;;;;;;;;23.51;46.42;99732.66;2056999;28;19925;-65
2021/08/29 04:18:53;;;;;;;;;;;;;;;23.51;46.23;99723.53;2061845;28;20454;-64
2021/08/29 04:19:54;;;;;;;;;;;;;;;23.50;46.45;99728.19;2071802;28;20348;-64
2021/08/29 04:20:54;;;;;;;;;;;;;;;23.51;46.33;99729.91;2075713;28;19987;-64
2021/08/29 04:21:55;;;;;;;;;;;;;;;23.50;46.39;99733.69;2061181;28;19923;-64
2021/08/29 04:22:55;;;;;;;;;;;;;;;23.50;46.44;99728.19;2058339;28;19925;-70
2021/08/29 04:23:56;;;;;;;;;;;;;;;23.50;46.36;99739.19;2077702;28;19917;-70
2021/08/29 04:24:56;;;;;;;;;;;;;;;23.50;46.23;99733.69;2078144;28;19991;-70
2021/08/29 04:25:56;;;;;;;;;;;;;;;23.50;46.34;99733.69;2070606;28;19909;-71
2021/08/29 04:26:57;;;;;;;;;;;;;;;23.49;46.35;99737.50;2079238;28;19917;-71
2021/08/29 04:27:57;;;;;;;;;;;;;;;23.50;46.23;99738.34;2065374;28;19964;-71
2021/08/29 04:28:58;;;;;;;;;;;;;;;23.49;46.35;99733.88;2076176;28;20668;-71
2021/08/29 04:29:58;;;;;;;;;;;;;;;23.49;46.19;99734.75;2067652;28;20339;-71
2021/08/29 04:31:01;;;;;;;;;;;;;;;23.49;46.40;99732.00;2068070;28;19993;-71
2021/08/29 04:32:02;;;;;;;;;;;;;;;23.49;46.30;99736.63;2070462;28;19923;-71
2021/08/29 04:33:02;;;;;;;;;;;;;;;23.48;46.40;99735.78;2071417;28;19920;-71
2021/08/29 04:34:06;;;;;;;;;;;;;;;23.49;46.30;99736.63;2070791;28;20008;-71
2021/08/29 04:35:07;;;;;;;;;;;;;;;23.49;46.16;99737.50;2071471;28;19918;-71
2021/08/29 04:36:10;;;;;;;;;;;;;;;23.49;46.42;99736.63;2079292;28;19963;-71
2021/08/29 04:37:10;;;;;;;;;;;;;;;23.49;46.25;99739.38;2076987;28;19917;-71
2021/08/29 04:38:11;;;;;;;;;;;;;;;23.48;46.33;99730.28;2073101;28;20367;-71
2021/08/29 04:39:11;;;;;;;;;;;;;;;23.48;46.08;99738.53;2075114;28;20312;-71
2021/08/29 04:40:12;;;;;;;;;;;;;;;23.48;46.28;99735.78;2067980;28;19920;-71
2021/08/29 04:41:12;;;;;;;;;;;;;;;23.48;46.19;99746.78;2069867;28;19920;-71
2021/08/29 04:42:12;;;;;;;;;;;;;;;23.48;46.17;99735.78;2070455;28;20135;-71
2021/08/29 04:43:13;;;;;;;;;;;;;;;23.48;46.13;99738.53;2063495;28;19920;-71
2021/08/29 04:44:13;;;;;;;;;;;;;;;23.47;46.19;99736.84;2063705;28;19914;-71
2021/08/29 04:45:13;;;;;;;;;;;;;;;23.47;46.40;99734.09;2069615;28;19917;-71
2021/08/29 04:46:15;;;;;;;;;;;;;;;23.48;46.02;99734.94;2070533;28;19913;-72
2021/08/29 04:47:15;;;;;;;;;;;;;;;23.48;46.25;99738.53;2070427;28;19967;-71
2021/08/29 04:48:15;;;;;;;;;;;;;;;23.49;46.10;99742.13;2073478;28;19974;-71
2021/08/29 04:49:15;;;;;;;;;;;;;;;23.48;46.12;99741.28;2079392;28;19913;-70
2021/08/29 04:50:16;;;;;;;;;;;;;;;23.47;46.34;99739.59;2083029;28;19913;-71
2021/08/29 04:51:16;;;;;;;;;;;;;;;23.48;46.01;99734.94;2070024;28;19913;-71
2021/08/29 04:52:17;;;;;;;;;;;;;;;23.48;46.31;99744.03;2077402;28;20387;-72
2021/08/29 04:53:17;;;;;;;;;;;;;;;23.47;46.18;99736.84;2070927;28;19984;-71
2021/08/29 04:54:17;;;;;;;;;;;;;;;23.47;46.28;99739.59;2070207;28;20328;-71
2021/08/29 04:55:17;;;;;;;;;;;;;;;23.46;46.15;99737.84;2070296;28;19917;-71
2021/08/29 04:56:18;;;;;;;;;;;;;;;23.46;46.32;99743.34;2070692;28;20419;-71
2021/08/29 04:57:18;;;;;;;;;;;;;;;23.46;46.33;99737.84;2078162;28;19917;-71
2021/08/29 04:58:18;;;;;;;;;;;;;;;23.47;46.31;99744.22;2077746;28;20015;-72
2021/08/29 04:59:19;;;;;;;;;;;;;;;23.46;46.28;99740.59;2070053;28;19923;-71
2021/08/29 05:00:19;;;;;;;;;;;;;;;23.45;46.38;99736.16;2072887;28;19921;-71
2021/08/29 05:01:20;;;;;;;;;;;;;;;23.45;46.27;99736.16;2072400;28;20600;-71
2021/08/29 05:02:20;;;;;;;;;;;;;;;23.46;46.17;99743.34;2070369;28;19944;-71
2021/08/29 05:03:21;;;;;;;;;;;;;;;23.45;46.26;99740.81;2070414;28;19914;-71
2021/08/29 05:04:21;;;;;;;;;;;;;;;23.45;46.35;99741.66;2077960;28;19921;-71
2021/08/29 05:05:21;;;;;;;;;;;;;;;23.46;46.29;99748.00;2074784;28;20009;-70
2021/08/29 05:06:22;;;;;;;;;;;;;;;23.45;45.94;99743.56;2070603;28;19917;-71
2021/08/29 05:07:22;;;;;;;;;;;;;;;23.45;46.35;99740.81;2078616;28;19964;-71
2021/08/29 05:08:22;;;;;;;;;;;;;;;23.45;46.25;99746.31;2071898;28;19914;-71
2021/08/29 05:09:22;;;;;;;;;;;;;;;23.45;46.04;99741.66;2070252;28;19921;-71
2021/08/29 05:10:23;;;;;;;;;;;;;;;23.45;46.22;99752.66;2070215;28;19925;-71
2021/08/29 05:11:23;;;;;;;;;;;;;;;23.44;46.18;99750.94;2066404;28;19920;-71
2021/08/29 05:12:23;;;;;;;;;;;;;;;23.44;46.03;99750.94;2077960;28;19913;-71
2021/08/29 05:13:24;;;;;;;;;;;;;;;23.44;46.16;99744.59;2089678;28;19958;-71
2021/08/29 05:14:26;;;;;;;;;;;;;;;23.44;46.18;99750.94;2070607;28;21224;-71
2021/08/29 05:15:27;;;;;;;;;;;;;;;23.44;46.06;99750.94;2093666;28;19916;-71
2021/08/29 05:16:27;;;;;;;;;;;;;;;23.44;46.12;99745.44;2090840;28;20012;-71
2021/08/29 05:17:27;;;;;;;;;;;;;;;23.44;46.21;99745.44;2063302;28;19983;-71
2021/08/29 05:18:29;;;;;;;;;;;;;;;23.43;46.41;99749.25;2063186;28;20340;-71